West Davis - southern half: Past 24 Hour Conditions

 

Baker Lake Airport

03:00 AM CST 23 November 2014
This table is a summary of hourly weather conditions for the past 24 hours.
Date / Time
(CST)
Wind(knots) Conditions Visibility(km) Pressure(kPa) Air tempC) Relative humidity(%) Dew pointC) Wind Chill
23 November 2014
3:00 WNW 18 Drifting Snow 24 100.7 -29 71 -33 -46
2:00 WNW 14 Mainly Clear 24 100.6 -30 71 -33 -44
1:00 WNW 16 Mainly Clear 24 100.6 -30 70 -34 -45
0:00 WNW 9 Mainly Clear 24 100.5 -30 69 -34 -42
22 November 2014
23:00 NW 11 gust 17 Mainly Clear 24 100.5 -31 69 -35 -44
22:00 WNW 17 Mainly Clear 24 100.4 -31 69 -35 -47
21:00 WNW 13 Mainly Clear 24 100.3 -32 69 -35 -46
20:00 WNW 15 Mainly Clear 24 100.3 -32 69 -36 -48
19:00 WNW 15 Mainly Clear 24 100.3 -32 69 -35 -47
18:00 NW 14 Mainly Clear 24 100.2 -31 69 -35 -46
17:00 WNW 15 Mainly Clear 24 100.2 -31 69 -35 -46
16:00 WNW 12 Mainly Clear 32 100.2 -32 70 -36 -46
15:00 WNW 17 Mainly Sunny 32 100.1 -31 70 -35 -47
14:00 WNW 15 Mainly Sunny 32 100.1 -30 69 -34 -45
13:00 WNW 15 Mainly Sunny 32 100.1 -30 69 -34 -45
12:00 WNW 15 Mainly Sunny 32 100.0 -30 69 -34 -45
11:00 WNW 11 Mainly Sunny 32 100.0 -31 70 -35 -44
10:00 W 13 Mainly Sunny 32 100.0 -31 70 -35 -46
9:00 WNW 11 Mainly Clear 32 100.0 -31 70 -35 -45
8:00 WNW 12 Mainly Clear 24 100.0 -31 71 -34 -45
7:00 WNW 11 Mainly Clear 24 100.1 -31 70 -35 -45
6:00 WNW 15 Mainly Clear 24 100.1 -31 70 -35 -46
5:00 WNW 15 Mainly Clear 24 100.0 -31 70 -35 -47
4:00 WNW 13 Mainly Clear 24 100.0 -31 70 -35 -46
3:00 WNW 14 Mainly Clear 24 100.1 -31 70 -35 -46
 
Map of Arctic - Eastern Arctic marine weather areas Baker Lake Airport Chesterfield Inlet Airport Coral Harbour Airport Gjoa Haven Airport Kugaaruk Airport Rankin Inlet Airport Shepherd Bay Airport Whale Cove Airport Arctic Bay Brevoort Island Qikiqtarjuaq Airport Cape Dorset Airport Cape Dyer Cape Hooper Clyde Airport Grise Fiord Airport Hall Beach Airport Igloolik Airport Iqaluit Airport Longstaff Bluff Pangnirtung Airport Pond Inlet Airport Repulse Bay Airport Resolute Airport Resolution Island Rowley Island Airport Taloyoak Airport Wager Bay Akulivik Airport Ivujivik Airport Puvirnituq Airport Kangiqsujuaq Airport Kangirsuk Airport Quaqtaq Airport Tasiujaq Airport Cape Kakkiviak Cape Kiglapait Nain Airport Saglek Cape Mercy Kimmirut Airport Aupaluk Airport Salluit Airport Kangiqsualujjuaq Airport Fort Ross
Legend: buoyBuoy land stationLand Station